sensor_id;sensor_type;location;lat;lon;timestamp;P1;durP1;ratioP1;P2;durP2;ratioP2
7587;SDS011;3835;48.850;8.938;2024-03-23T00:54:20;13.87;;;13.00;;
7587;SDS011;3835;48.850;8.938;2024-03-23T00:56:48;26.00;;;13.67;;
7587;SDS011;3835;48.850;8.938;2024-03-23T00:59:13;13.13;;;12.23;;
7587;SDS011;3835;48.850;8.938;2024-03-23T01:01:40;14.77;;;13.73;;
7587;SDS011;3835;48.850;8.938;2024-03-23T01:04:06;15.57;;;14.57;;
7587;SDS011;3835;48.850;8.938;2024-03-23T01:06:33;15.00;;;14.10;;
7587;SDS011;3835;48.850;8.938;2024-03-23T01:09:02;15.03;;;14.23;;
7587;SDS011;3835;48.850;8.938;2024-03-23T01:11:30;15.57;;;14.63;;
7587;SDS011;3835;48.850;8.938;2024-03-23T01:13:56;14.07;;;13.17;;
7587;SDS011;3835;48.850;8.938;2024-03-23T01:16:29;15.80;;;14.77;;
7587;SDS011;3835;48.850;8.938;2024-03-23T01:18:55;15.13;;;14.33;;
7587;SDS011;3835;48.850;8.938;2024-03-23T01:21:21;15.57;;;14.67;;
7587;SDS011;3835;48.850;8.938;2024-03-23T01:23:47;14.27;;;13.47;;
7587;SDS011;3835;48.850;8.938;2024-03-23T01:26:15;14.60;;;13.77;;
7587;SDS011;3835;48.850;8.938;2024-03-23T01:28:42;13.87;;;13.17;;
7587;SDS011;3835;48.850;8.938;2024-03-23T01:31:18;14.63;;;13.83;;
7587;SDS011;3835;48.850;8.938;2024-03-23T01:33:47;16.20;;;15.30;;
7587;SDS011;3835;48.850;8.938;2024-03-23T01:36:21;17.57;;;16.50;;
7587;SDS011;3835;48.850;8.938;2024-03-23T01:38:47;19.73;;;18.47;;
7587;SDS011;3835;48.850;8.938;2024-03-23T01:41:14;18.97;;;17.97;;
7587;SDS011;3835;48.850;8.938;2024-03-23T01:43:41;18.30;;;17.30;;
7587;SDS011;3835;48.850;8.938;2024-03-23T01:46:08;18.57;;;17.53;;
7587;SDS011;3835;48.850;8.938;2024-03-23T01:48:34;16.70;;;15.73;;
7587;SDS011;3835;48.850;8.938;2024-03-23T01:51:01;19.63;;;18.63;;
7587;SDS011;3835;48.850;8.938;2024-03-23T01:53:27;16.77;;;15.87;;
7587;SDS011;3835;48.850;8.938;2024-03-23T01:55:55;15.27;;;14.47;;
7587;SDS011;3835;48.850;8.938;2024-03-23T01:58:22;16.00;;;14.80;;
7587;SDS011;3835;48.850;8.938;2024-03-23T02:00:50;15.37;;;14.57;;
7587;SDS011;3835;48.850;8.938;2024-03-23T02:03:22;17.73;;;16.77;;
7587;SDS011;3835;48.850;8.938;2024-03-23T02:05:50;17.63;;;16.73;;
7587;SDS011;3835;48.850;8.938;2024-03-23T02:08:17;18.90;;;17.90;;
7587;SDS011;3835;48.850;8.938;2024-03-23T02:10:44;18.87;;;17.67;;
7587;SDS011;3835;48.850;8.938;2024-03-23T02:15:53;17.87;;;16.77;;
7587;SDS011;3835;48.850;8.938;2024-03-23T02:18:19;17.23;;;16.33;;
7587;SDS011;3835;48.850;8.938;2024-03-23T02:20:45;18.13;;;17.23;;
7587;SDS011;3835;48.850;8.938;2024-03-23T02:23:16;17.60;;;16.50;;
7587;SDS011;3835;48.850;8.938;2024-03-23T02:25:44;15.37;;;14.47;;
7587;SDS011;3835;48.850;8.938;2024-03-23T02:28:10;15.27;;;14.37;;
7587;SDS011;3835;48.850;8.938;2024-03-23T02:30:37;15.70;;;15.00;;
7587;SDS011;3835;48.850;8.938;2024-03-23T02:33:03;15.57;;;14.73;;
7587;SDS011;3835;48.850;8.938;2024-03-23T02:35:30;15.87;;;15.07;;
7587;SDS011;3835;48.850;8.938;2024-03-23T02:37:55;15.50;;;14.00;;
7587;SDS011;3835;48.850;8.938;2024-03-23T02:40:24;16.80;;;15.83;;
7587;SDS011;3835;48.850;8.938;2024-03-23T02:42:50;16.13;;;15.20;;
7587;SDS011;3835;48.850;8.938;2024-03-23T02:45:17;16.67;;;15.57;;
7587;SDS011;3835;48.850;8.938;2024-03-23T02:47:42;15.43;;;14.63;;
7587;SDS011;3835;48.850;8.938;2024-03-23T02:50:09;15.63;;;14.67;;
7587;SDS011;3835;48.850;8.938;2024-03-23T02:52:35;14.63;;;13.83;;
7587;SDS011;3835;48.850;8.938;2024-03-23T02:55:03;15.50;;;14.60;;
7587;SDS011;3835;48.850;8.938;2024-03-23T02:57:30;14.37;;;13.57;;
7587;SDS011;3835;48.850;8.938;2024-03-23T02:59:57;15.10;;;14.30;;
7587;SDS011;3835;48.850;8.938;2024-03-23T03:02:23;13.97;;;13.27;;
7587;SDS011;3835;48.850;8.938;2024-03-23T03:04:50;14.27;;;13.47;;
7587;SDS011;3835;48.850;8.938;2024-03-23T03:07:16;13.17;;;12.37;;
7587;SDS011;3835;48.850;8.938;2024-03-23T03:09:43;14.13;;;13.33;;
7587;SDS011;3835;48.850;8.938;2024-03-23T03:12:08;16.17;;;15.27;;
7587;SDS011;3835;48.850;8.938;2024-03-23T03:14:37;15.33;;;14.53;;
7587;SDS011;3835;48.850;8.938;2024-03-23T03:17:03;14.87;;;13.97;;
7587;SDS011;3835;48.850;8.938;2024-03-23T03:19:32;13.97;;;13.17;;
7587;SDS011;3835;48.850;8.938;2024-03-23T03:21:58;14.53;;;13.73;;
7587;SDS011;3835;48.850;8.938;2024-03-23T03:24:25;13.87;;;13.00;;
7587;SDS011;3835;48.850;8.938;2024-03-23T03:26:50;14.97;;;14.00;;
7587;SDS011;3835;48.850;8.938;2024-03-23T03:29:17;15.10;;;14.10;;
7587;SDS011;3835;48.850;8.938;2024-03-23T03:31:46;15.00;;;14.20;;
7587;SDS011;3835;48.850;8.938;2024-03-23T03:34:18;14.17;;;13.37;;
7587;SDS011;3835;48.850;8.938;2024-03-23T03:36:47;14.77;;;14.03;;
7587;SDS011;3835;48.850;8.938;2024-03-23T03:39:14;14.77;;;13.97;;
7587;SDS011;3835;48.850;8.938;2024-03-23T03:41:40;14.43;;;13.63;;
7587;SDS011;3835;48.850;8.938;2024-03-23T03:44:06;16.87;;;15.63;;
7587;SDS011;3835;48.850;8.938;2024-03-23T03:46:32;16.50;;;15.50;;
7587;SDS011;3835;48.850;8.938;2024-03-23T03:49:01;17.33;;;16.43;;
7587;SDS011;3835;48.850;8.938;2024-03-23T03:51:26;15.70;;;14.80;;
7587;SDS011;3835;48.850;8.938;2024-03-23T03:53:53;15.70;;;14.87;;
7587;SDS011;3835;48.850;8.938;2024-03-23T03:56:19;16.73;;;15.53;;
7587;SDS011;3835;48.850;8.938;2024-03-23T03:58:47;17.50;;;16.40;;
7587;SDS011;3835;48.850;8.938;2024-03-23T04:01:13;17.80;;;16.50;;
7587;SDS011;3835;48.850;8.938;2024-03-23T04:03:40;18.07;;;16.97;;
7587;SDS011;3835;48.850;8.938;2024-03-23T04:06:10;16.03;;;15.17;;
7587;SDS011;3835;48.850;8.938;2024-03-23T04:08:37;15.77;;;14.87;;
7587;SDS011;3835;48.850;8.938;2024-03-23T04:11:03;18.63;;;17.63;;
7587;SDS011;3835;48.850;8.938;2024-03-23T04:13:30;17.93;;;16.87;;
7587;SDS011;3835;48.850;8.938;2024-03-23T04:15:56;15.60;;;14.50;;
7587;SDS011;3835;48.850;8.938;2024-03-23T04:18:23;18.30;;;17.10;;
7587;SDS011;3835;48.850;8.938;2024-03-23T04:20:49;18.33;;;16.77;;
7587;SDS011;3835;48.850;8.938;2024-03-23T04:23:17;20.30;;;18.80;;
7587;SDS011;3835;48.850;8.938;2024-03-23T04:25:43;21.07;;;19.17;;
7587;SDS011;3835;48.850;8.938;2024-03-23T04:28:10;19.00;;;17.50;;
7587;SDS011;3835;48.850;8.938;2024-03-23T04:30:36;22.90;;;20.93;;
7587;SDS011;3835;48.850;8.938;2024-03-23T04:33:03;22.97;;;20.97;;
7587;SDS011;3835;48.850;8.938;2024-03-23T04:35:30;22.90;;;20.83;;
7587;SDS011;3835;48.850;8.938;2024-03-23T04:37:57;23.57;;;21.03;;
7587;SDS011;3835;48.850;8.938;2024-03-23T04:40:26;24.97;;;22.63;;
7587;SDS011;3835;48.850;8.938;2024-03-23T04:42:53;24.83;;;22.17;;
7587;SDS011;3835;48.850;8.938;2024-03-23T04:45:20;22.70;;;20.67;;
7587;SDS011;3835;48.850;8.938;2024-03-23T04:47:47;22.97;;;20.97;;
7587;SDS011;3835;48.850;8.938;2024-03-23T04:50:14;24.30;;;21.83;;
7587;SDS011;3835;48.850;8.938;2024-03-23T04:52:42;23.87;;;21.37;;
7587;SDS011;3835;48.850;8.938;2024-03-23T04:55:08;23.37;;;20.87;;
7587;SDS011;3835;48.850;8.938;2024-03-23T04:57:38;25.40;;;22.90;;
7587;SDS011;3835;48.850;8.938;2024-03-23T05:00:05;25.47;;;22.77;;
7587;SDS011;3835;48.850;8.938;2024-03-23T05:02:42;27.30;;;22.50;;
7587;SDS011;3835;48.850;8.938;2024-03-23T05:05:13;24.63;;;22.07;;
7587;SDS011;3835;48.850;8.938;2024-03-23T05:07:39;27.10;;;24.50;;
7587;SDS011;3835;48.850;8.938;2024-03-23T05:10:07;27.53;;;24.57;;
7587;SDS011;3835;48.850;8.938;2024-03-23T05:12:40;26.10;;;22.53;;
7587;SDS011;3835;48.850;8.938;2024-03-23T05:15:07;27.63;;;23.87;;
7587;SDS011;3835;48.850;8.938;2024-03-23T05:17:33;28.60;;;24.57;;
7587;SDS011;3835;48.850;8.938;2024-03-23T05:20:01;26.33;;;23.30;;
7587;SDS011;3835;48.850;8.938;2024-03-23T05:22:28;25.57;;;22.73;;
7587;SDS011;3835;48.850;8.938;2024-03-23T05:24:56;24.50;;;22.00;;
7587;SDS011;3835;48.850;8.938;2024-03-23T05:27:22;23.30;;;21.00;;
7587;SDS011;3835;48.850;8.938;2024-03-23T05:29:50;23.43;;;21.23;;
7587;SDS011;3835;48.850;8.938;2024-03-23T05:32:16;23.10;;;20.77;;
7587;SDS011;3835;48.850;8.938;2024-03-23T05:34:43;24.17;;;21.87;;
7587;SDS011;3835;48.850;8.938;2024-03-23T05:37:09;25.27;;;22.87;;
7587;SDS011;3835;48.850;8.938;2024-03-23T05:39:36;24.37;;;22.10;;
7587;SDS011;3835;48.850;8.938;2024-03-23T05:42:02;25.43;;;22.93;;
7587;SDS011;3835;48.850;8.938;2024-03-23T05:44:29;21.50;;;19.40;;
7587;SDS011;3835;48.850;8.938;2024-03-23T05:46:57;22.13;;;20.23;;
7587;SDS011;3835;48.850;8.938;2024-03-23T05:49:24;20.40;;;18.60;;
7587;SDS011;3835;48.850;8.938;2024-03-23T05:51:50;19.90;;;18.00;;
7587;SDS011;3835;48.850;8.938;2024-03-23T05:54:18;18.10;;;16.50;;
7587;SDS011;3835;48.850;8.938;2024-03-23T05:56:44;17.40;;;16.07;;
7587;SDS011;3835;48.850;8.938;2024-03-23T05:59:11;17.00;;;15.80;;
7587;SDS011;3835;48.850;8.938;2024-03-23T06:01:37;16.60;;;15.27;;
7587;SDS011;3835;48.850;8.938;2024-03-23T06:04:06;17.07;;;15.87;;
7587;SDS011;3835;48.850;8.938;2024-03-23T06:06:32;16.80;;;15.23;;
7587;SDS011;3835;48.850;8.938;2024-03-23T06:08:59;16.67;;;15.47;;
7587;SDS011;3835;48.850;8.938;2024-03-23T06:11:25;16.27;;;14.97;;
7587;SDS011;3835;48.850;8.938;2024-03-23T06:13:52;14.73;;;13.73;;
7587;SDS011;3835;48.850;8.938;2024-03-23T06:16:19;15.70;;;14.63;;
7587;SDS011;3835;48.850;8.938;2024-03-23T06:18:48;15.77;;;14.60;;
7587;SDS011;3835;48.850;8.938;2024-03-23T06:21:16;15.13;;;14.23;;
7587;SDS011;3835;48.850;8.938;2024-03-23T06:23:43;13.87;;;13.07;;
7587;SDS011;3835;48.850;8.938;2024-03-23T06:26:13;13.00;;;12.30;;
7587;SDS011;3835;48.850;8.938;2024-03-23T06:28:40;14.30;;;13.40;;
7587;SDS011;3835;48.850;8.938;2024-03-23T06:31:08;14.17;;;13.53;;
7587;SDS011;3835;48.850;8.938;2024-03-23T06:33:35;13.83;;;13.13;;
7587;SDS011;3835;48.850;8.938;2024-03-23T06:36:01;12.10;;;11.50;;
7587;SDS011;3835;48.850;8.938;2024-03-23T06:38:30;12.40;;;11.70;;
7587;SDS011;3835;48.850;8.938;2024-03-23T06:40:56;13.73;;;12.93;;
7587;SDS011;3835;48.850;8.938;2024-03-23T06:43:23;12.87;;;12.17;;
7587;SDS011;3835;48.850;8.938;2024-03-23T06:45:52;11.27;;;10.77;;
7587;SDS011;3835;48.850;8.938;2024-03-23T06:48:19;12.50;;;11.93;;
7587;SDS011;3835;48.850;8.938;2024-03-23T06:50:45;13.17;;;12.50;;
7587;SDS011;3835;48.850;8.938;2024-03-23T06:53:12;10.93;;;10.33;;
7587;SDS011;3835;48.850;8.938;2024-03-23T06:55:40;12.10;;;11.60;;
7587;SDS011;3835;48.850;8.938;2024-03-23T06:58:07;12.10;;;11.60;;
7587;SDS011;3835;48.850;8.938;2024-03-23T07:00:33;10.97;;;10.53;;
7587;SDS011;3835;48.850;8.938;2024-03-23T07:03:00;13.77;;;13.17;;
7587;SDS011;3835;48.850;8.938;2024-03-23T07:05:26;12.20;;;11.70;;
7587;SDS011;3835;48.850;8.938;2024-03-23T07:07:52;11.43;;;10.93;;
7587;SDS011;3835;48.850;8.938;2024-03-23T07:10:18;11.73;;;11.23;;
7587;SDS011;3835;48.850;8.938;2024-03-23T07:12:46;12.60;;;12.10;;
7587;SDS011;3835;48.850;8.938;2024-03-23T07:15:12;13.10;;;12.50;;
7587;SDS011;3835;48.850;8.938;2024-03-23T07:17:46;12.27;;;11.77;;
7587;SDS011;3835;48.850;8.938;2024-03-23T07:20:12;13.27;;;12.67;;
7587;SDS011;3835;48.850;8.938;2024-03-23T07:22:39;12.40;;;11.83;;
7587;SDS011;3835;48.850;8.938;2024-03-23T07:25:05;16.00;;;15.33;;
7587;SDS011;3835;48.850;8.938;2024-03-23T07:27:32;13.50;;;12.80;;
7587;SDS011;3835;48.850;8.938;2024-03-23T07:30:10;13.27;;;12.70;;
7587;SDS011;3835;48.850;8.938;2024-03-23T07:32:40;12.53;;;12.03;;
7587;SDS011;3835;48.850;8.938;2024-03-23T07:35:06;12.40;;;11.83;;
7587;SDS011;3835;48.850;8.938;2024-03-23T07:37:33;12.17;;;11.57;;
7587;SDS011;3835;48.850;8.938;2024-03-23T07:39:59;13.67;;;13.17;;
7587;SDS011;3835;48.850;8.938;2024-03-23T07:42:26;12.87;;;12.37;;
7587;SDS011;3835;48.850;8.938;2024-03-23T07:44:53;12.07;;;11.57;;
7587;SDS011;3835;48.850;8.938;2024-03-23T07:47:23;11.97;;;11.47;;
7587;SDS011;3835;48.850;8.938;2024-03-23T07:49:49;11.87;;;11.37;;
7587;SDS011;3835;48.850;8.938;2024-03-23T07:52:34;15.30;;;14.70;;
7587;SDS011;3835;48.850;8.938;2024-03-23T07:55:00;13.13;;;12.57;;
7587;SDS011;3835;48.850;8.938;2024-03-23T07:57:28;14.33;;;13.73;;
7587;SDS011;3835;48.850;8.938;2024-03-23T07:59:54;16.53;;;15.63;;
7587;SDS011;3835;48.850;8.938;2024-03-23T08:02:22;19.90;;;18.90;;
7587;SDS011;3835;48.850;8.938;2024-03-23T08:04:48;14.13;;;13.53;;
7587;SDS011;3835;48.850;8.938;2024-03-23T08:07:18;13.40;;;12.70;;
7587;SDS011;3835;48.850;8.938;2024-03-23T08:09:44;14.23;;;13.63;;
7587;SDS011;3835;48.850;8.938;2024-03-23T08:12:11;14.43;;;13.83;;
7587;SDS011;3835;48.850;8.938;2024-03-23T08:14:37;13.23;;;12.63;;
7587;SDS011;3835;48.850;8.938;2024-03-23T08:17:18;14.53;;;13.83;;
7587;SDS011;3835;48.850;8.938;2024-03-23T08:19:45;13.83;;;13.20;;
7587;SDS011;3835;48.850;8.938;2024-03-23T08:22:12;12.90;;;12.30;;
7587;SDS011;3835;48.850;8.938;2024-03-23T08:24:37;13.87;;;13.27;;
7587;SDS011;3835;48.850;8.938;2024-03-23T08:27:04;12.90;;;12.40;;
7587;SDS011;3835;48.850;8.938;2024-03-23T08:29:30;12.50;;;11.93;;
7587;SDS011;3835;48.850;8.938;2024-03-23T08:31:57;11.57;;;11.07;;
7587;SDS011;3835;48.850;8.938;2024-03-23T08:34:23;11.67;;;11.17;;
7587;SDS011;3835;48.850;8.938;2024-03-23T08:36:51;12.23;;;11.73;;
7587;SDS011;3835;48.850;8.938;2024-03-23T08:39:17;16.00;;;15.20;;
7587;SDS011;3835;48.850;8.938;2024-03-23T08:41:44;12.87;;;12.17;;
7587;SDS011;3835;48.850;8.938;2024-03-23T08:44:11;12.50;;;12.00;;
7587;SDS011;3835;48.850;8.938;2024-03-23T08:46:38;12.50;;;11.90;;
7587;SDS011;3835;48.850;8.938;2024-03-23T08:49:04;13.17;;;12.47;;
7587;SDS011;3835;48.850;8.938;2024-03-23T08:51:30;11.90;;;11.40;;
7587;SDS011;3835;48.850;8.938;2024-03-23T08:53:58;13.73;;;13.13;;
7587;SDS011;3835;48.850;8.938;2024-03-23T08:56:24;12.77;;;12.00;;
7587;SDS011;3835;48.850;8.938;2024-03-23T08:58:50;12.80;;;12.10;;
7587;SDS011;3835;48.850;8.938;2024-03-23T09:01:17;12.90;;;12.30;;
7587;SDS011;3835;48.850;8.938;2024-03-23T09:03:43;13.43;;;12.73;;
7587;SDS011;3835;48.850;8.938;2024-03-23T09:06:11;13.47;;;12.67;;
7587;SDS011;3835;48.850;8.938;2024-03-23T09:08:38;11.77;;;11.03;;
7587;SDS011;3835;48.850;8.938;2024-03-23T09:11:07;12.17;;;11.27;;
7587;SDS011;3835;48.850;8.938;2024-03-23T09:13:34;14.47;;;13.07;;
7587;SDS011;3835;48.850;8.938;2024-03-23T09:16:02;14.20;;;13.17;;
7587;SDS011;3835;48.850;8.938;2024-03-23T09:18:30;14.43;;;13.23;;
7587;SDS011;3835;48.850;8.938;2024-03-23T09:20:58;14.90;;;13.90;;
7587;SDS011;3835;48.850;8.938;2024-03-23T09:23:24;14.77;;;13.57;;
7587;SDS011;3835;48.850;8.938;2024-03-23T09:25:51;15.17;;;13.90;;
7587;SDS011;3835;48.850;8.938;2024-03-23T09:28:18;13.93;;;13.03;;
7587;SDS011;3835;48.850;8.938;2024-03-23T09:30:45;14.30;;;13.43;;
7587;SDS011;3835;48.850;8.938;2024-03-23T09:33:11;13.63;;;12.70;;
7587;SDS011;3835;48.850;8.938;2024-03-23T09:35:38;15.17;;;14.13;;
7587;SDS011;3835;48.850;8.938;2024-03-23T09:38:04;13.30;;;12.37;;
7587;SDS011;3835;48.850;8.938;2024-03-23T09:40:32;13.37;;;12.27;;
7587;SDS011;3835;48.850;8.938;2024-03-23T09:42:58;14.17;;;13.27;;
7587;SDS011;3835;48.850;8.938;2024-03-23T09:45:28;14.03;;;13.03;;
7587;SDS011;3835;48.850;8.938;2024-03-23T09:47:54;16.13;;;14.50;;
7587;SDS011;3835;48.850;8.938;2024-03-23T09:50:21;13.67;;;12.60;;
7587;SDS011;3835;48.850;8.938;2024-03-23T09:52:47;14.97;;;13.83;;
7587;SDS011;3835;48.850;8.938;2024-03-23T09:55:14;17.07;;;16.10;;
7587;SDS011;3835;48.850;8.938;2024-03-23T09:57:41;15.13;;;14.23;;
7587;SDS011;3835;48.850;8.938;2024-03-23T10:00:08;15.23;;;14.00;;
7587;SDS011;3835;48.850;8.938;2024-03-23T10:02:36;14.63;;;13.50;;
7587;SDS011;3835;48.850;8.938;2024-03-23T10:05:19;18.00;;;16.67;;
7587;SDS011;3835;48.850;8.938;2024-03-23T10:07:46;15.63;;;14.40;;
7587;SDS011;3835;48.850;8.938;2024-03-23T10:10:17;15.10;;;13.97;;
7587;SDS011;3835;48.850;8.938;2024-03-23T10:12:46;15.33;;;14.33;;
7587;SDS011;3835;48.850;8.938;2024-03-23T10:15:20;14.50;;;13.60;;
7587;SDS011;3835;48.850;8.938;2024-03-23T10:17:48;14.07;;;13.07;;
7587;SDS011;3835;48.850;8.938;2024-03-23T10:20:18;17.07;;;15.87;;
7587;SDS011;3835;48.850;8.938;2024-03-23T10:22:45;17.53;;;16.23;;
7587;SDS011;3835;48.850;8.938;2024-03-23T10:25:12;16.87;;;15.87;;
7587;SDS011;3835;48.850;8.938;2024-03-23T10:27:39;17.57;;;15.97;;
7587;SDS011;3835;48.850;8.938;2024-03-23T10:30:09;18.47;;;17.27;;
7587;SDS011;3835;48.850;8.938;2024-03-23T10:32:36;14.30;;;13.20;;
7587;SDS011;3835;48.850;8.938;2024-03-23T10:35:15;15.10;;;13.87;;
7587;SDS011;3835;48.850;8.938;2024-03-23T10:37:43;15.40;;;14.10;;
7587;SDS011;3835;48.850;8.938;2024-03-23T10:40:11;16.70;;;15.30;;
7587;SDS011;3835;48.850;8.938;2024-03-23T10:42:38;15.47;;;14.23;;
7587;SDS011;3835;48.850;8.938;2024-03-23T10:45:06;15.97;;;14.97;;
7587;SDS011;3835;48.850;8.938;2024-03-23T10:47:34;14.97;;;13.93;;
7587;SDS011;3835;48.850;8.938;2024-03-23T10:50:02;14.97;;;13.93;;
7587;SDS011;3835;48.850;8.938;2024-03-23T10:52:31;13.77;;;12.77;;
7587;SDS011;3835;48.850;8.938;2024-03-23T10:54:59;14.67;;;13.60;;
7587;SDS011;3835;48.850;8.938;2024-03-23T10:57:29;18.13;;;16.80;;
7587;SDS011;3835;48.850;8.938;2024-03-23T11:00:01;14.77;;;13.87;;
7587;SDS011;3835;48.850;8.938;2024-03-23T11:02:29;15.80;;;14.70;;
7587;SDS011;3835;48.850;8.938;2024-03-23T11:04:56;14.47;;;13.47;;
7587;SDS011;3835;48.850;8.938;2024-03-23T11:07:28;15.03;;;14.03;;
7587;SDS011;3835;48.850;8.938;2024-03-23T11:09:58;14.93;;;14.00;;
7587;SDS011;3835;48.850;8.938;2024-03-23T11:12:25;14.53;;;13.63;;
7587;SDS011;3835;48.850;8.938;2024-03-23T11:14:55;14.97;;;13.97;;
7587;SDS011;3835;48.850;8.938;2024-03-23T11:17:24;14.60;;;13.50;;
7587;SDS011;3835;48.850;8.938;2024-03-23T11:19:53;14.27;;;13.27;;
7587;SDS011;3835;48.850;8.938;2024-03-23T11:25:13;14.00;;;12.90;;
7587;SDS011;3835;48.850;8.938;2024-03-23T11:27:40;15.63;;;14.53;;
7587;SDS011;3835;48.850;8.938;2024-03-23T11:30:11;12.80;;;12.00;;
7587;SDS011;3835;48.850;8.938;2024-03-23T11:32:38;14.87;;;13.77;;
7587;SDS011;3835;48.850;8.938;2024-03-23T11:35:05;14.07;;;13.33;;
7587;SDS011;3835;48.850;8.938;2024-03-23T11:37:31;15.07;;;13.93;;
7587;SDS011;3835;48.850;8.938;2024-03-23T11:39:58;16.37;;;15.37;;
7587;SDS011;3835;48.850;8.938;2024-03-23T11:42:26;13.73;;;12.70;;
7587;SDS011;3835;48.850;8.938;2024-03-23T11:44:53;13.77;;;12.77;;
7587;SDS011;3835;48.850;8.938;2024-03-23T11:47:19;13.67;;;12.77;;
7587;SDS011;3835;48.850;8.938;2024-03-23T11:49:46;12.50;;;11.80;;
7587;SDS011;3835;48.850;8.938;2024-03-23T11:52:14;13.13;;;12.43;;
7587;SDS011;3835;48.850;8.938;2024-03-23T11:54:43;12.97;;;12.00;;
7587;SDS011;3835;48.850;8.938;2024-03-23T11:57:09;16.30;;;15.13;;
7587;SDS011;3835;48.850;8.938;2024-03-23T11:59:37;13.40;;;12.50;;
7587;SDS011;3835;48.850;8.938;2024-03-23T12:02:08;15.53;;;14.33;;
7587;SDS011;3835;48.850;8.938;2024-03-23T12:04:36;13.77;;;12.83;;
7587;SDS011;3835;48.850;8.938;2024-03-23T12:07:09;15.43;;;14.20;;
7587;SDS011;3835;48.850;8.938;2024-03-23T12:09:37;12.60;;;11.57;;
7587;SDS011;3835;48.850;8.938;2024-03-23T12:12:10;14.93;;;13.90;;
7587;SDS011;3835;48.850;8.938;2024-03-23T12:14:43;12.33;;;11.53;;
7587;SDS011;3835;48.850;8.938;2024-03-23T12:17:10;12.50;;;11.43;;
7587;SDS011;3835;48.850;8.938;2024-03-23T12:19:37;13.57;;;12.70;;
7587;SDS011;3835;48.850;8.938;2024-03-23T12:22:04;11.93;;;11.13;;
7587;SDS011;3835;48.850;8.938;2024-03-23T12:24:31;13.77;;;12.87;;
7587;SDS011;3835;48.850;8.938;2024-03-23T12:26:59;14.00;;;12.83;;
7587;SDS011;3835;48.850;8.938;2024-03-23T12:29:28;13.70;;;12.80;;
7587;SDS011;3835;48.850;8.938;2024-03-23T12:31:55;13.13;;;12.07;;
7587;SDS011;3835;48.850;8.938;2024-03-23T12:34:23;13.10;;;12.27;;
7587;SDS011;3835;48.850;8.938;2024-03-23T12:36:50;13.60;;;12.40;;
7587;SDS011;3835;48.850;8.938;2024-03-23T12:39:15;13.27;;;12.10;;
7587;SDS011;3835;48.850;8.938;2024-03-23T12:41:43;13.77;;;12.73;;
7587;SDS011;3835;48.850;8.938;2024-03-23T12:44:09;14.07;;;12.97;;
7587;SDS011;3835;48.850;8.938;2024-03-23T12:46:37;12.93;;;12.13;;
7587;SDS011;3835;48.850;8.938;2024-03-23T12:49:04;13.07;;;12.07;;
7587;SDS011;3835;48.850;8.938;2024-03-23T12:51:31;14.13;;;12.97;;
7587;SDS011;3835;48.850;8.938;2024-03-23T12:53:57;13.80;;;12.80;;
7587;SDS011;3835;48.850;8.938;2024-03-23T12:56:24;11.77;;;10.90;;
7587;SDS011;3835;48.850;8.938;2024-03-23T12:58:50;13.73;;;12.57;;
7587;SDS011;3835;48.850;8.938;2024-03-23T13:01:18;13.93;;;12.73;;
7587;SDS011;3835;48.850;8.938;2024-03-23T13:03:45;13.90;;;12.73;;
7587;SDS011;3835;48.850;8.938;2024-03-23T13:06:14;13.90;;;12.70;;
7587;SDS011;3835;48.850;8.938;2024-03-23T13:08:40;12.73;;;11.83;;
7587;SDS011;3835;48.850;8.938;2024-03-23T13:11:08;13.47;;;12.37;;
7587;SDS011;3835;48.850;8.938;2024-03-23T13:13:35;12.77;;;11.80;;
7587;SDS011;3835;48.850;8.938;2024-03-23T13:16:02;14.87;;;13.90;;
7587;SDS011;3835;48.850;8.938;2024-03-23T13:18:29;16.77;;;15.57;;
7587;SDS011;3835;48.850;8.938;2024-03-23T13:20:56;15.53;;;14.53;;
7587;SDS011;3835;48.850;8.938;2024-03-23T13:23:23;15.73;;;14.60;;
7587;SDS011;3835;48.850;8.938;2024-03-23T13:25:50;14.40;;;13.30;;
7587;SDS011;3835;48.850;8.938;2024-03-23T13:28:17;15.03;;;14.20;;
7587;SDS011;3835;48.850;8.938;2024-03-23T13:30:49;14.77;;;13.83;;
7587;SDS011;3835;48.850;8.938;2024-03-23T13:33:16;14.83;;;13.77;;
7587;SDS011;3835;48.850;8.938;2024-03-23T13:35:48;14.87;;;13.87;;
7587;SDS011;3835;48.850;8.938;2024-03-23T13:38:15;16.10;;;15.10;;
7587;SDS011;3835;48.850;8.938;2024-03-23T13:40:50;13.67;;;12.80;;
7587;SDS011;3835;48.850;8.938;2024-03-23T13:43:16;14.37;;;13.33;;
7587;SDS011;3835;48.850;8.938;2024-03-23T13:45:44;11.70;;;11.10;;
7587;SDS011;3835;48.850;8.938;2024-03-23T13:48:09;13.23;;;12.37;;
7587;SDS011;3835;48.850;8.938;2024-03-23T13:50:36;13.73;;;13.13;;
7587;SDS011;3835;48.850;8.938;2024-03-23T13:53:02;13.33;;;12.53;;
7587;SDS011;3835;48.850;8.938;2024-03-23T13:55:29;15.47;;;14.43;;
7587;SDS011;3835;48.850;8.938;2024-03-23T13:57:57;15.47;;;14.43;;
7587;SDS011;3835;48.850;8.938;2024-03-23T14:00:24;13.93;;;13.07;;
7587;SDS011;3835;48.850;8.938;2024-03-23T14:02:50;13.00;;;12.30;;
7587;SDS011;3835;48.850;8.938;2024-03-23T14:05:17;13.97;;;13.03;;
7587;SDS011;3835;48.850;8.938;2024-03-23T14:07:46;13.23;;;12.47;;
7587;SDS011;3835;48.850;8.938;2024-03-23T14:10:14;13.83;;;12.83;;
7587;SDS011;3835;48.850;8.938;2024-03-23T14:12:41;14.60;;;13.70;;
7587;SDS011;3835;48.850;8.938;2024-03-23T14:15:08;12.17;;;11.47;;
7587;SDS011;3835;48.850;8.938;2024-03-23T14:17:35;12.20;;;11.50;;
7587;SDS011;3835;48.850;8.938;2024-03-23T14:20:01;13.73;;;13.03;;
7587;SDS011;3835;48.850;8.938;2024-03-23T14:22:39;13.80;;;13.00;;
7587;SDS011;3835;48.850;8.938;2024-03-23T14:25:15;14.83;;;13.87;;
7587;SDS011;3835;48.850;8.938;2024-03-23T14:27:45;12.93;;;12.33;;
7587;SDS011;3835;48.850;8.938;2024-03-23T14:30:20;13.63;;;12.83;;
7587;SDS011;3835;48.850;8.938;2024-03-23T14:47:23;13.33;;;12.43;;
7587;SDS011;3835;48.850;8.938;2024-03-23T14:50:07;14.63;;;13.73;;
7587;SDS011;3835;48.850;8.938;2024-03-23T14:52:44;15.30;;;14.50;;
7587;SDS011;3835;48.850;8.938;2024-03-23T14:55:13;16.00;;;15.07;;
7587;SDS011;3835;48.850;8.938;2024-03-23T14:57:50;11.70;;;11.07;;
7587;SDS011;3835;48.850;8.938;2024-03-23T15:00:23;12.83;;;12.07;;
7587;SDS011;3835;48.850;8.938;2024-03-23T15:03:07;15.07;;;14.10;;
7587;SDS011;3835;48.850;8.938;2024-03-23T15:05:36;13.57;;;12.77;;
7587;SDS011;3835;48.850;8.938;2024-03-23T15:08:08;12.80;;;12.20;;
7587;SDS011;3835;48.850;8.938;2024-03-23T15:10:36;12.70;;;12.00;;
7587;SDS011;3835;48.850;8.938;2024-03-23T15:13:06;15.77;;;14.67;;
7587;SDS011;3835;48.850;8.938;2024-03-23T15:15:37;16.77;;;15.43;;
7587;SDS011;3835;48.850;8.938;2024-03-23T15:18:22;18.07;;;16.17;;
7587;SDS011;3835;48.850;8.938;2024-03-23T15:20:55;15.53;;;14.37;;
7587;SDS011;3835;48.850;8.938;2024-03-23T15:23:30;13.90;;;12.93;;
7587;SDS011;3835;48.850;8.938;2024-03-23T15:26:00;11.50;;;10.90;;
7587;SDS011;3835;48.850;8.938;2024-03-23T15:28:29;12.03;;;11.47;;
7587;SDS011;3835;48.850;8.938;2024-03-23T15:31:07;11.87;;;11.03;;
7587;SDS011;3835;48.850;8.938;2024-03-23T15:33:35;11.37;;;10.77;;
7587;SDS011;3835;48.850;8.938;2024-03-23T15:36:05;12.27;;;11.67;;
7587;SDS011;3835;48.850;8.938;2024-03-23T15:38:31;12.27;;;11.67;;
7587;SDS011;3835;48.850;8.938;2024-03-23T15:40:59;12.53;;;11.87;;
7587;SDS011;3835;48.850;8.938;2024-03-23T15:43:25;11.03;;;10.53;;
7587;SDS011;3835;48.850;8.938;2024-03-23T15:45:55;11.23;;;10.63;;
7587;SDS011;3835;48.850;8.938;2024-03-23T15:48:22;13.20;;;12.37;;
7587;SDS011;3835;48.850;8.938;2024-03-23T15:50:54;14.07;;;13.37;;
7587;SDS011;3835;48.850;8.938;2024-03-23T15:53:24;15.00;;;14.20;;
7587;SDS011;3835;48.850;8.938;2024-03-23T15:55:53;16.77;;;15.97;;
7587;SDS011;3835;48.850;8.938;2024-03-23T15:58:19;15.37;;;14.47;;
7587;SDS011;3835;48.850;8.938;2024-03-23T16:00:53;14.30;;;13.40;;
7587;SDS011;3835;48.850;8.938;2024-03-23T16:03:20;14.03;;;13.27;;
7587;SDS011;3835;48.850;8.938;2024-03-23T16:05:50;14.93;;;14.30;;